Terminal Aerodrome Forecast
Issued by NWS Sioux Falls, SD

Home | Current Version | Previous Version | Graphics & Text | Print | Product List | Glossary Off
Versions: 1 2 3 4 5 6 7 8 9 10 11 12 13 14 15 16 17

000
FTUS43 KFSD 132300
TAFFSD
TAF
KFSD 132339Z 1400/1424 01022G32KT P6SM BKN100 OVC200
     FM140500 36017G26KT P6SM BKN150
     FM141000 35014G21KT P6SM BKN200
     FM141700 33015G23KT P6SM SCT050
      TEMPO 1418/1422 BKN050=

USA.gov is the U.S. government's official web portal to all federal, state and local government web resources and services.